Time;durP1;ratioP1;P1;durP2;ratioP2;P2;SDS_P1;SDS_P2;PMS_P1;PMS_P2;Temp;Humidity;BMP_temperature;BMP_pressure;BME280_temperature;BME280_humidity;BME280_pressure;Samples;Min_cycle;Max_cycle;Signal;HPM_P1;HPM_P2
2021/11/08 00:00:08;;;;;;;1035.45;966.55;;;;;;;8.72;67.94;100813.47;686398;28;69335;-67
2021/11/08 00:00:30;;;;;;;1024.63;956.35;;;;;;;8.72;67.58;100810.78;684985;28;138997;-67
2021/11/08 00:00:54;;;;;;;1023.63;955.42;;;;;;;8.72;67.58;100811.63;688218;28;67465;-66
2021/11/08 00:01:16;;;;;;;1034.45;965.50;;;;;;;8.70;67.74;100807.38;685918;28;110985;-66
2021/11/08 00:01:39;;;;;;;1043.95;974.45;;;;;;;8.69;67.95;100811.13;688187;28;44261;-66
2021/11/08 00:02:02;;;;;;;1025.28;956.97;;;;;;;8.66;67.80;100815.78;687830;28;69518;-67
2021/11/08 00:02:25;;;;;;;1025.85;957.45;;;;;;;8.66;67.94;100814.97;689901;28;69288;-66
2021/11/08 00:02:46;;;;;;;1027.07;958.58;;;;;;;8.66;67.94;100814.97;689941;28;69275;-67
2021/11/08 00:03:10;;;;;;;1027.18;958.78;;;;;;;8.65;68.09;100819.50;691357;28;23356;-67
2021/11/08 00:03:35;;;;;;;1026.30;957.80;;;;;;;8.64;67.88;100815.13;688327;28;90707;-66
2021/11/08 00:03:56;;;;;;;1030.70;962.00;;;;;;;8.64;68.12;100806.22;688996;28;113561;-67
2021/11/08 00:04:17;;;;;;;1031.07;962.50;;;;;;;8.66;68.03;100810.41;690208;28;22351;-65
2021/11/08 00:04:38;;;;;;;1026.00;957.72;;;;;;;8.65;67.88;100813.25;689554;28;23402;-66
2021/11/08 00:05:01;;;;;;;1036.35;967.40;;;;;;;8.66;68.00;100804.19;689045;28;22392;-65
2021/11/08 00:05:22;;;;;;;1045.55;976.08;;;;;;;8.65;68.11;100808.75;688462;28;46425;-67
2021/11/08 00:05:44;;;;;;;1030.55;961.97;;;;;;;8.63;67.97;100813.44;688211;28;45236;-66
2021/11/08 00:06:06;;;;;;;1026.25;957.97;;;;;;;8.63;67.94;100817.97;687196;28;67464;-66
2021/11/08 00:06:28;;;;;;;1024.82;956.53;;;;;;;8.61;68.11;100815.44;689151;28;23487;-66
2021/11/08 00:06:51;;;;;;;1027.18;958.78;;;;;;;8.63;68.17;100808.03;687787;28;46306;-66
2021/11/08 00:07:12;;;;;;;1032.15;963.55;;;;;;;8.62;67.94;100806.38;688626;28;46314;-66
2021/11/08 00:07:33;;;;;;;1035.60;966.80;;;;;;;8.64;68.21;100816.97;689633;28;22222;-67
2021/11/08 00:08:00;;;;;;;1036.63;967.63;;;;;;;8.64;67.88;100815.13;687784;28;45247;-67
2021/11/08 00:08:21;;;;;;;1033.65;964.92;;;;;;;8.61;68.09;100811.91;684762;28;138767;-66
2021/11/08 00:08:43;;;;;;;1036.28;967.47;;;;;;;8.58;68.21;100810.38;689739;28;22393;-67
2021/11/08 00:09:05;;;;;;;1030.25;961.75;;;;;;;8.56;68.14;100812.41;689436;28;22363;-67
2021/11/08 00:09:26;;;;;;;1031.95;963.35;;;;;;;8.56;68.52;100814.25;687524;28;69420;-66
2021/11/08 00:09:48;;;;;;;1034.07;965.38;;;;;;;8.55;68.36;100810.72;691711;28;21463;-66
2021/11/08 00:10:09;;;;;;;1037.30;968.50;;;;;;;8.55;68.24;100823.34;690220;28;44380;-67
2021/11/08 00:10:33;;;;;;;1040.00;970.90;;;;;;;8.54;68.61;100822.50;691902;28;19368;-67
2021/11/08 00:10:54;;;;;;;1035.13;966.22;;;;;;;8.57;68.60;100824.84;689302;28;92112;-66
2021/11/08 00:11:17;;;;;;;1037.25;968.35;;;;;;;8.54;68.60;100813.56;691728;28;22423;-66
2021/11/08 00:11:39;;;;;;;1040.97;971.92;;;;;;;8.56;68.54;100820.47;689018;28;69406;-67
2021/11/08 00:12:01;;;;;;;1040.63;971.65;;;;;;;8.59;68.31;100824.69;688905;28;45243;-67
2021/11/08 00:12:23;;;;;;;1042.32;973.22;;;;;;;8.60;68.37;100821.00;688435;28;45210;-66
2021/11/08 00:12:46;;;;;;;1042.40;973.22;;;;;;;8.60;68.25;100823.69;688560;28;44386;-67
2021/11/08 00:13:08;;;;;;;1033.93;965.42;;;;;;;8.61;68.41;100828.06;687883;28;69399;-67
2021/11/08 00:13:29;;;;;;;1034.57;965.97;;;;;;;8.62;68.38;100829.75;687610;28;46097;-67
2021/11/08 00:13:51;;;;;;;1038.10;969.30;;;;;;;8.59;68.27;100828.25;689327;28;17834;-67
2021/11/08 00:14:15;;;;;;;1033.93;965.22;;;;;;;8.60;68.36;100818.31;688086;28;45263;-66
2021/11/08 00:14:41;;;;;;;1033.55;964.75;;;;;;;8.61;68.43;100838.84;687244;28;92239;-66
2021/11/08 00:15:04;;;;;;;1046.45;977.03;;;;;;;8.62;68.54;100827.91;684354;28;137729;-66
2021/11/08 00:15:30;;;;;;;1056.68;986.38;;;;;;;8.61;68.33;100826.22;686765;28;69253;-65
2021/11/08 00:16:03;;;;;;;1056.60;986.30;;;;;;;8.61;68.64;100828.06;684000;28;160846;-67
2021/11/08 00:16:31;;;;;;;1044.50;974.80;;;;;;;8.57;68.47;100827.53;683982;28;160362;-66
2021/11/08 00:17:02;;;;;;;1051.00;981.08;;;;;;;8.56;68.64;100833.94;684979;28;139234;-66
2021/11/08 00:17:40;;;;;;;1049.72;979.92;;;;;;;8.59;68.70;100830.94;686539;28;99434;-67
2021/11/08 00:18:04;;;;;;;1061.60;991.10;;;;;;;8.58;68.94;100828.41;684340;28;137203;-66
2021/11/08 00:18:30;;;;;;;1054.60;984.60;;;;;;;8.54;69.00;100830.59;685851;28;92241;-67
2021/11/08 00:19:04;;;;;;;1051.38;981.60;;;;;;;8.53;68.93;100828.88;684104;28;136517;-66
2021/11/08 00:20:11;;;;;;;1035.47;966.78;;;;;;;8.52;69.17;100821.81;676675;28;135664;-67
2021/11/08 00:20:40;;;;;;;1031.75;963.03;;;;;;;8.56;69.23;100836.63;685061;28;113308;-66
2021/11/08 00:21:01;;;;;;;1026.35;957.92;;;;;;;8.55;69.09;100826.88;683652;28;160796;-66
2021/11/08 00:21:28;;;;;;;1032.85;964.13;;;;;;;8.56;69.19;100827.72;687836;28;46288;-66
2021/11/08 00:21:50;;;;;;;1030.20;961.60;;;;;;;8.52;69.15;100843.34;684532;28;138560;-66
2021/11/08 00:22:12;;;;;;;1029.50;960.90;;;;;;;8.52;69.12;100821.81;687907;28;45157;-67
2021/11/08 00:22:36;;;;;;;1030.85;962.15;;;;;;;8.54;69.40;100827.03;688630;28;45119;-65
2021/11/08 00:22:57;;;;;;;1029.40;960.80;;;;;;;8.54;69.21;100830.59;685448;28;90215;-67
2021/11/08 00:23:20;;;;;;;1031.03;962.33;;;;;;;8.54;69.11;100822.50;687788;28;22453;-67
2021/11/08 00:23:41;;;;;;;1034.03;965.30;;;;;;;8.53;69.38;100825.34;685986;28;69454;-67
2021/11/08 00:24:05;;;;;;;1032.57;963.90;;;;;;;8.58;69.19;100831.09;687663;28;21593;-66
2021/11/08 00:24:27;;;;;;;1043.97;974.60;;;;;;;8.56;69.08;100822.34;685362;28;90813;-67
2021/11/08 00:24:51;;;;;;;1050.65;980.88;;;;;;;8.55;69.41;100826.88;686903;28;67403;-66
2021/11/08 00:25:12;;;;;;;1052.28;982.33;;;;;;;8.55;69.46;100823.34;687517;28;43647;-66
2021/11/08 00:25:33;;;;;;;1052.28;982.33;;;;;;;8.52;69.52;100824.50;689175;28;23715;-67
2021/11/08 00:25:56;;;;;;;1052.63;982.63;;;;;;;8.51;69.34;100828.22;688572;28;44178;-66
2021/11/08 00:26:18;;;;;;;1051.38;981.47;;;;;;;8.50;69.57;100823.81;687451;28;45074;-66
2021/11/08 00:26:39;;;;;;;1055.85;985.60;;;;;;;8.51;69.75;100830.03;688261;28;45241;-67
2021/11/08 00:27:01;;;;;;;1056.05;985.92;;;;;;;8.48;69.63;100825.84;687343;28;22369;-65
2021/11/08 00:27:22;;;;;;;1051.93;982.05;;;;;;;8.48;69.93;100828.53;687255;28;46474;-66
2021/11/08 00:27:44;;;;;;;1048.63;978.72;;;;;;;8.48;70.02;100820.47;687563;28;21237;-67
2021/11/08 00:28:07;;;;;;;1048.40;978.40;;;;;;;8.48;70.03;100836.59;686492;28;45246;-66
2021/11/08 00:28:29;;;;;;;1048.43;978.63;;;;;;;8.48;70.02;100831.22;686881;28;61191;-66
2021/11/08 00:28:50;;;;;;;1045.03;975.50;;;;;;;8.47;69.79;100826.84;687788;28;45295;-67
2021/11/08 00:29:12;;;;;;;1047.13;977.47;;;;;;;8.49;70.04;100830.19;689078;28;23493;-67
2021/11/08 00:29:34;;;;;;;1048.90;979.22;;;;;;;8.47;69.90;100822.28;688837;28;46261;-67
2021/11/08 00:29:57;;;;;;;1049.95;980.33;;;;;;;8.48;69.83;100826.69;689488;28;44395;-67
2021/11/08 00:30:19;;;;;;;1048.68;979.00;;;;;;;8.49;70.06;100824.81;686756;28;70076;-66
2021/11/08 00:30:41;;;;;;;1049.85;980.03;;;;;;;8.47;69.92;100819.59;689271;28;46313;-66
2021/11/08 00:31:03;;;;;;;1050.68;980.88;;;;;;;8.49;70.11;100835.59;687542;28;46307;-66
2021/11/08 00:31:24;;;;;;;1047.20;977.60;;;;;;;8.53;70.07;100825.34;688554;28;46427;-66
2021/11/08 00:31:46;;;;;;;1048.53;978.83;;;;;;;8.53;70.01;100834.25;689381;28;21468;-66
2021/11/08 00:32:07;;;;;;;1052.10;982.38;;;;;;;8.54;69.83;100827.88;689014;28;47185;-67
2021/11/08 00:32:29;;;;;;;1052.43;982.63;;;;;;;8.58;70.05;100821.16;689062;28;45238;-67
2021/11/08 00:32:51;;;;;;;1053.13;983.22;;;;;;;8.58;69.72;100829.22;689551;28;23392;-66
2021/11/08 00:33:15;;;;;;;1058.22;988.13;;;;;;;8.59;69.67;100822.84;691790;28;20972;-66
2021/11/08 00:33:39;;;;;;;1056.47;986.40;;;;;;;8.61;69.95;100828.91;689650;28;92131;-66
2021/11/08 00:34:00;;;;;;;1050.90;981.13;;;;;;;8.61;69.80;100825.38;689951;28;92516;-66
2021/11/08 00:34:21;;;;;;;1049.85;980.15;;;;;;;8.59;69.78;100830.94;692054;28;22339;-67
2021/11/08 00:34:44;;;;;;;1051.43;981.63;;;;;;;8.61;69.92;100831.59;692602;28;23329;-66
2021/11/08 00:35:06;;;;;;;1046.85;977.35;;;;;;;8.62;69.97;100827.06;688218;28;70378;-67
2021/11/08 00:35:27;;;;;;;1050.28;980.53;;;;;;;8.63;69.79;100831.44;688467;28;45214;-67
2021/11/08 00:35:51;;;;;;;1051.10;981.30;;;;;;;8.62;69.57;100827.91;690307;28;22406;-66
2021/11/08 00:36:12;;;;;;;1050.20;980.50;;;;;;;8.62;69.90;100833.28;686113;28;112047;-67
2021/11/08 00:36:33;;;;;;;1047.88;978.28;;;;;;;8.61;69.87;100825.38;689852;28;21517;-66
2021/11/08 00:36:54;;;;;;;1048.05;978.45;;;;;;;8.61;69.98;100828.91;689547;28;22369;-67
2021/11/08 00:37:16;;;;;;;1044.85;975.42;;;;;;;8.59;70.08;100828.25;689775;28;21538;-66
2021/11/08 00:37:38;;;;;;;1045.20;975.65;;;;;;;8.58;70.15;100828.41;688512;28;45397;-65
2021/11/08 00:37:59;;;;;;;1038.35;969.10;;;;;;;8.58;70.05;100837.31;688762;28;44386;-66
2021/11/08 00:38:20;;;;;;;1031.35;962.67;;;;;;;8.60;70.19;100829.91;688601;28;22390;-66
2021/11/08 00:38:42;;;;;;;1027.22;958.65;;;;;;;8.58;70.09;100829.22;688817;28;45254;-66
2021/11/08 00:39:04;;;;;;;1031.82;963.13;;;;;;;8.57;70.10;100830.22;689188;28;45408;-66
2021/11/08 00:39:26;;;;;;;1031.63;962.95;;;;;;;8.56;70.01;100830.41;689781;28;1530;-66
2021/11/08 00:39:49;;;;;;;1031.07;962.38;;;;;;;8.56;70.28;100825.03;690911;28;945;-66
2021/11/08 00:40:12;;;;;;;1029.55;960.95;;;;;;;8.54;70.40;100829.72;687821;28;45239;-67
2021/11/08 00:40:34;;;;;;;1026.78;958.28;;;;;;;8.52;70.22;100824.50;687932;28;68182;-66
2021/11/08 00:40:55;;;;;;;1031.15;962.40;;;;;;;8.52;70.59;100829.88;692064;28;22179;-67
2021/11/08 00:41:16;;;;;;;1030.07;961.38;;;;;;;8.52;70.61;100832.56;692404;28;24988;-66
2021/11/08 00:41:37;;;;;;;1028.93;960.25;;;;;;;8.50;70.34;100828.38;691665;28;46459;-67
2021/11/08 00:41:59;;;;;;;1030.35;961.65;;;;;;;8.51;70.48;100830.03;692145;28;22350;-66
2021/11/08 00:42:20;;;;;;;1029.53;960.75;;;;;;;8.52;70.42;100835.25;691662;28;38549;-66
2021/11/08 00:42:43;;;;;;;1028.47;959.78;;;;;;;8.53;70.36;100828.06;690923;28;22389;-66
2021/11/08 00:43:04;;;;;;;1026.38;957.88;;;;;;;8.52;70.47;100829.88;689109;28;45173;-67
2021/11/08 00:43:26;;;;;;;1027.40;958.80;;;;;;;8.53;70.35;100830.75;689664;28;13064;-66
2021/11/08 00:43:48;;;;;;;1026.93;958.42;;;;;;;8.49;70.66;100830.19;688096;28;69373;-66
2021/11/08 00:44:09;;;;;;;1028.65;960.05;;;;;;;8.51;70.53;100830.03;689201;28;21510;-66
2021/11/08 00:44:30;;;;;;;1028.90;960.28;;;;;;;8.51;70.58;100838.13;689731;28;22396;-66
2021/11/08 00:44:52;;;;;;;1040.43;971.17;;;;;;;8.53;70.43;100834.25;690251;28;21586;-66
2021/11/08 00:45:15;;;;;;;1048.07;978.38;;;;;;;8.52;70.66;100831.72;686160;28;67583;-67
2021/11/08 00:45:36;;;;;;;1048.82;979.03;;;;;;;8.54;70.46;100838.66;688000;28;12910;-67
2021/11/08 00:45:57;;;;;;;1044.70;975.25;;;;;;;8.53;70.64;100847.72;687431;28;45262;-66
2021/11/08 00:46:19;;;;;;;1049.65;979.90;;;;;;;8.56;70.44;100860.88;688136;28;21516;-67
2021/11/08 00:46:40;;;;;;;1048.72;979.03;;;;;;;8.60;70.56;100845.22;687538;28;46390;-67
2021/11/08 00:47:02;;;;;;;1048.25;978.60;;;;;;;8.60;70.60;100837.16;688723;28;21332;-67
2021/11/08 00:47:24;;;;;;;1047.22;977.63;;;;;;;8.59;70.36;100835.44;688299;28;44366;-67
2021/11/08 00:47:46;;;;;;;1048.70;978.80;;;;;;;8.59;70.39;100839.00;691484;28;1916;-67
2021/11/08 00:48:07;;;;;;;1038.18;968.92;;;;;;;8.57;70.38;100838.31;691496;28;45257;-67
2021/11/08 00:48:31;;;;;;;1030.88;962.28;;;;;;;8.58;70.42;100844.56;691755;28;22367;-66
2021/11/08 00:48:52;;;;;;;1029.32;960.80;;;;;;;8.57;70.38;100838.31;689615;28;92034;-66
2021/11/08 00:49:14;;;;;;;1027.85;959.45;;;;;;;8.61;70.66;100838.84;692516;28;22398;-66
2021/11/08 00:49:37;;;;;;;1027.63;959.13;;;;;;;8.64;70.60;100846.59;688601;28;46500;-67
2021/11/08 00:49:59;;;;;;;1030.13;961.60;;;;;;;8.69;70.03;100838.03;688291;28;69211;-66
2021/11/08 00:50:20;;;;;;;1028.40;959.90;;;;;;;8.68;69.93;100844.41;687882;28;66310;-66
2021/11/08 00:50:42;;;;;;;1029.15;960.55;;;;;;;8.68;70.25;100834.47;690098;28;21643;-67
2021/11/08 00:51:05;;;;;;;1027.22;958.72;;;;;;;8.66;70.14;100837.34;688167;28;46279;-66
2021/11/08 00:51:26;;;;;;;1025.15;956.67;;;;;;;8.65;70.13;100827.59;687858;28;69874;-67
2021/11/08 00:51:48;;;;;;;1030.15;961.45;;;;;;;8.63;70.34;100829.59;688381;28;23431;-67
2021/11/08 00:52:09;;;;;;;1028.97;960.38;;;;;;;8.62;70.39;100833.28;688678;28;45230;-67
2021/11/08 00:52:31;;;;;;;1029.47;960.88;;;;;;;8.61;70.60;100834.28;688905;28;43831;-67
2021/11/08 00:52:53;;;;;;;1027.05;958.55;;;;;;;8.62;70.49;100837.81;690477;28;44055;-67
2021/11/08 00:53:14;;;;;;;1025.88;957.38;;;;;;;8.61;70.69;100838.84;691262;28;22362;-66
2021/11/08 00:53:36;;;;;;;1026.82;958.25;;;;;;;8.62;70.43;100846.75;690165;28;44369;-67
2021/11/08 00:53:58;;;;;;;1028.68;960.17;;;;;;;8.61;70.55;100837.00;690929;28;23352;-67
2021/11/08 00:54:19;;;;;;;1030.40;961.67;;;;;;;8.59;70.80;100838.13;689463;28;42680;-67
2021/11/08 00:54:41;;;;;;;1032.30;963.40;;;;;;;8.59;70.78;100843.53;689952;28;22314;-67
2021/11/08 00:55:02;;;;;;;1030.75;961.95;;;;;;;8.60;70.57;100839.84;688479;28;46612;-67
2021/11/08 00:55:26;;;;;;;1030.65;961.85;;;;;;;8.60;70.91;100839.84;688075;28;46281;-66
2021/11/08 00:55:47;;;;;;;1028.53;959.92;;;;;;;8.61;70.82;100838.84;687777;28;69409;-66
2021/11/08 00:56:13;;;;;;;1027.85;959.28;;;;;;;8.58;70.72;100831.94;688159;28;45223;-66
2021/11/08 00:56:34;;;;;;;1027.72;959.15;;;;;;;8.56;70.86;100839.31;686729;28;113562;-67
2021/11/08 00:56:59;;;;;;;1032.85;964.00;;;;;;;8.54;71.13;100838.66;688926;28;21536;-67
2021/11/08 00:57:22;;;;;;;1046.78;977.08;;;;;;;8.53;71.15;100836.13;686787;28;114792;-67
2021/11/08 00:57:45;;;;;;;1048.50;978.70;;;;;;;8.51;71.15;100841.66;686520;28;91376;-67
2021/11/08 00:58:13;;;;;;;1050.47;980.58;;;;;;;8.50;71.32;100842.66;688443;28;67625;-66
2021/11/08 00:58:37;;;;;;;1049.82;980.13;;;;;;;8.50;71.44;100845.34;685611;28;137838;-67
2021/11/08 00:58:58;;;;;;;1046.68;977.13;;;;;;;8.50;71.63;100845.34;687288;28;113347;-67
2021/11/08 00:59:20;;;;;;;1050.05;980.35;;;;;;;8.52;71.20;100855.97;691525;28;23492;-66
2021/11/08 00:59:42;;;;;;;1050.03;980.28;;;;;;;8.53;71.40;100855.81;691240;28;23272;-67
2021/11/08 01:00:05;;;;;;;1046.43;976.83;;;;;;;8.54;71.18;100838.66;689797;28;46319;-67
2021/11/08 01:00:30;;;;;;;1047.82;978.22;;;;;;;8.55;71.36;100843.00;689599;28;68335;-67
2021/11/08 01:00:51;;;;;;;1038.47;969.30;;;;;;;8.55;71.23;100843.00;687675;28;115185;-66
2021/11/08 01:01:18;;;;;;;1032.38;963.63;;;;;;;8.54;71.45;100845.88;687765;28;67069;-66
2021/11/08 01:01:40;;;;;;;1028.57;960.03;;;;;;;8.52;71.71;100843.34;684899;28;139331;-66
2021/11/08 01:02:01;;;;;;;1025.15;956.83;;;;;;;8.54;71.36;100851.25;689519;28;22439;-67
2021/11/08 01:02:24;;;;;;;1024.55;956.25;;;;;;;8.56;71.40;100839.31;690766;28;1460;-67
2021/11/08 01:02:47;;;;;;;1035.28;966.30;;;;;;;8.57;71.43;100843.69;688017;28;69402;-66
2021/11/08 01:03:09;;;;;;;1040.72;971.47;;;;;;;8.57;71.25;100837.47;689219;28;46313;-66
2021/11/08 01:03:31;;;;;;;1038.60;969.30;;;;;;;8.55;71.43;100837.63;688183;28;45241;-66
2021/11/08 01:03:52;;;;;;;1040.30;971.05;;;;;;;8.53;71.47;100847.72;688840;28;46392;-67
2021/11/08 01:04:19;;;;;;;1042.25;972.97;;;;;;;8.51;71.56;100848.88;689102;28;45230;-67
2021/11/08 01:04:41;;;;;;;1042.43;973.08;;;;;;;8.50;71.89;100855.28;685688;28;137796;-67
2021/11/08 01:05:04;;;;;;;1044.88;975.47;;;;;;;8.54;71.74;100846.72;688722;28;46589;-67
2021/11/08 01:05:26;;;;;;;1041.43;971.97;;;;;;;8.55;71.74;100856.47;688972;28;39247;-66
2021/11/08 01:05:49;;;;;;;1043.82;974.38;;;;;;;8.53;71.60;100853.09;689313;28;23443;-67
2021/11/08 01:06:11;;;;;;;1041.35;972.10;;;;;;;8.52;71.75;100848.72;690628;28;45828;-66
2021/11/08 01:06:32;;;;;;;1046.65;977.15;;;;;;;8.52;71.62;100848.72;691742;28;46265;-66
2021/11/08 01:06:58;;;;;;;1045.32;975.92;;;;;;;8.52;71.69;100847.88;692093;28;22195;-66
2021/11/08 01:07:20;;;;;;;1049.85;980.15;;;;;;;8.52;71.90;100854.09;688268;28;140360;-66
2021/11/08 01:07:42;;;;;;;1045.57;975.80;;;;;;;8.50;72.09;100855.28;690111;28;45223;-67
2021/11/08 01:08:04;;;;;;;1046.57;976.78;;;;;;;8.50;72.17;100847.22;690492;28;21557;-67
2021/11/08 01:08:25;;;;;;;1037.82;968.67;;;;;;;8.49;72.03;100851.72;688695;28;46269;-65
2021/11/08 01:08:47;;;;;;;1026.90;958.40;;;;;;;8.49;72.00;100851.72;689727;28;22447;-67
2021/11/08 01:09:08;;;;;;;1028.70;960.20;;;;;;;8.48;72.07;100847.38;688354;28;70643;-67
2021/11/08 01:09:30;;;;;;;1028.55;960.05;;;;;;;8.48;71.92;100860.84;689212;28;23460;-66
2021/11/08 01:09:51;;;;;;;1025.07;956.58;;;;;;;8.47;71.97;100843.81;687904;28;21516;-65
2021/11/08 01:10:16;;;;;;;1024.72;956.33;;;;;;;8.50;72.01;100848.03;688794;28;23434;-67
2021/11/08 01:10:37;;;;;;;1024.32;955.97;;;;;;;8.46;71.98;100847.53;686505;28;115125;-65
2021/11/08 01:10:58;;;;;;;1024.38;956.08;;;;;;;8.45;72.35;100850.38;689409;28;22198;-67
2021/11/08 01:11:19;;;;;;;1023.95;955.72;;;;;;;8.44;72.14;100849.53;689805;28;22416;-66
2021/11/08 01:11:40;;;;;;;1022.97;954.67;;;;;;;8.45;72.11;100855.78;688881;28;23422;-66
2021/11/08 01:12:03;;;;;;;1023.22;954.92;;;;;;;8.43;72.43;100852.34;688678;28;46306;-66
2021/11/08 01:12:25;;;;;;;1019.72;951.53;;;;;;;8.42;72.33;100850.69;689895;28;24575;-67
2021/11/08 01:12:47;;;;;;;1021.15;952.92;;;;;;;8.44;72.35;100851.38;688671;28;46314;-66
2021/11/08 01:13:08;;;;;;;1023.33;955.03;;;;;;;8.44;72.42;100846.00;687614;28;46355;-66
2021/11/08 01:13:30;;;;;;;1019.78;951.65;;;;;;;8.46;72.39;100858.31;688684;28;48060;-67
2021/11/08 01:13:51;;;;;;;1021.53;953.38;;;;;;;8.45;72.17;100856.59;688475;28;46321;-67
2021/11/08 01:14:12;;;;;;;1028.68;960.15;;;;;;;8.47;72.53;100854.59;688996;28;23380;-66
2021/11/08 01:14:34;;;;;;;1028.30;959.80;;;;;;;8.51;72.04;100857.81;689498;28;22411;-66
2021/11/08 01:14:56;;;;;;;1026.63;958.20;;;;;;;8.50;72.04;100860.66;689051;28;23698;-66
2021/11/08 01:15:17;;;;;;;1025.80;957.30;;;;;;;8.50;72.02;100868.75;687162;28;69271;-66
2021/11/08 01:15:40;;;;;;;1023.78;955.38;;;;;;;8.48;72.27;100867.06;689960;28;22457;-66
2021/11/08 01:16:01;;;;;;;1023.33;955.05;;;;;;;8.47;72.29;100862.66;687935;28;46336;-67
2021/11/08 01:16:25;;;;;;;1024.60;956.20;;;;;;;8.47;72.37;100864.53;688405;28;22560;-67
2021/11/08 01:16:54;;;;;;;1027.00;958.57;;;;;;;8.45;72.21;100859.28;686387;28;113599;-67
2021/11/08 01:17:15;;;;;;;1022.60;954.30;;;;;;;8.43;72.48;100857.72;684831;28;138776;-67
2021/11/08 01:17:38;;;;;;;1018.58;950.38;;;;;;;8.44;72.58;100865.66;688015;28;22378;-66
2021/11/08 01:17:59;;;;;;;1024.57;955.97;;;;;;;8.42;72.54;100856.06;688740;28;46345;-67
2021/11/08 01:18:20;;;;;;;1025.10;956.63;;;;;;;8.43;72.58;100860.41;688581;28;22376;-66
2021/11/08 01:18:44;;;;;;;1023.10;954.70;;;;;;;8.42;72.67;100858.75;689314;28;21514;-67
2021/11/08 01:19:06;;;;;;;1025.22;956.83;;;;;;;8.44;72.41;100864.84;687007;28;92290;-66
2021/11/08 01:19:28;;;;;;;1023.30;955.00;;;;;;;8.43;72.41;100855.03;687804;28;69454;-66
2021/11/08 01:19:51;;;;;;;1023.95;955.55;;;;;;;8.43;72.51;100857.72;688641;28;46380;-65
2021/11/08 01:20:14;;;;;;;1024.22;955.92;;;;;;;8.42;72.49;100858.75;687588;28;67600;-66
2021/11/08 01:20:35;;;;;;;1026.05;957.65;;;;;;;8.41;72.47;100862.44;689049;28;44395;-67
2021/11/08 01:20:57;;;;;;;1024.50;956.20;;;;;;;8.40;72.65;100866.13;688922;28;46202;-66
2021/11/08 01:21:19;;;;;;;1022.40;954.20;;;;;;;8.42;72.58;100862.28;689331;28;22028;-66
2021/11/08 01:21:41;;;;;;;1024.28;955.90;;;;;;;8.42;72.50;100856.06;687382;28;46399;-66
2021/11/08 01:22:06;;;;;;;1026.95;958.58;;;;;;;8.42;72.76;100856.06;688920;28;46080;-66
2021/11/08 01:22:28;;;;;;;1024.00;955.60;;;;;;;8.41;72.90;100860.56;686318;28;114281;-66
2021/11/08 01:22:49;;;;;;;1019.60;951.42;;;;;;;8.40;72.72;100871.50;689055;28;46330;-66
2021/11/08 01:23:12;;;;;;;1022.03;953.72;;;;;;;8.41;72.80;100865.13;689645;28;43237;-66
2021/11/08 01:23:34;;;;;;;1022.50;954.17;;;;;;;8.39;72.93;100865.28;691510;28;1814;-66
2021/11/08 01:23:55;;;;;;;1024.07;955.72;;;;;;;8.40;72.92;100864.28;690579;28;45088;-67
2021/11/08 01:24:17;;;;;;;1026.07;957.63;;;;;;;8.41;72.93;100873.19;692138;28;21716;-66
2021/11/08 01:24:39;;;;;;;1026.20;957.60;;;;;;;8.40;72.73;100863.44;691361;28;47800;-67
2021/11/08 01:25:00;;;;;;;1025.35;956.95;;;;;;;8.38;73.00;100866.28;685140;28;23460;-66
2021/11/08 01:25:24;;;;;;;1027.22;958.53;;;;;;;8.40;72.91;100864.28;690056;28;1561;-67
2021/11/08 01:25:53;;;;;;;1025.32;956.63;;;;;;;8.40;73.11;100864.28;683402;28;94483;-66
2021/11/08 01:26:15;;;;;;;1021.80;953.47;;;;;;;8.41;72.80;100865.13;681130;28;157492;-67
2021/11/08 01:26:36;;;;;;;1014.85;946.80;;;;;;;8.40;72.73;100866.97;685454;28;21532;-66
2021/11/08 01:26:58;;;;;;;1020.20;951.90;;;;;;;8.42;72.81;100867.66;684418;28;43965;-66
2021/11/08 01:27:21;;;;;;;1041.78;972.47;;;;;;;8.42;72.86;100864.97;686802;28;46366;-66
2021/11/08 01:27:43;;;;;;;1046.40;976.72;;;;;;;8.42;72.65;100864.97;687140;28;45234;-66
2021/11/08 01:28:05;;;;;;;1048.07;978.38;;;;;;;8.43;72.99;100863.09;687799;28;45315;-66
2021/11/08 01:28:34;;;;;;;1049.22;979.63;;;;;;;8.45;72.94;100867.38;688429;28;44130;-66
2021/11/08 01:28:55;;;;;;;1050.20;980.40;;;;;;;8.47;72.75;100868.03;685317;28;137864;-66
2021/11/08 01:29:16;;;;;;;1047.82;978.13;;;;;;;8.48;72.77;100871.59;688269;28;44370;-67
2021/11/08 01:29:38;;;;;;;1041.75;972.50;;;;;;;8.49;72.73;100862.50;690521;28;12380;-66
2021/11/08 01:30:00;;;;;;;1029.45;960.83;;;;;;;8.51;72.66;100867.72;688899;28;22411;-67
2021/11/08 01:30:24;;;;;;;1029.65;961.00;;;;;;;8.51;72.67;100870.41;689166;28;46389;-67
2021/11/08 01:30:47;;;;;;;1031.30;962.50;;;;;;;8.49;72.72;100870.56;686733;28;114305;-66
2021/11/08 01:31:09;;;;;;;1032.53;963.63;;;;;;;8.48;72.55;100877.81;686429;28;69525;-66
2021/11/08 01:31:32;;;;;;;1038.78;969.53;;;;;;;8.49;72.53;100878.66;687186;28;44380;-66
2021/11/08 01:31:53;;;;;;;1055.43;985.33;;;;;;;8.51;72.52;100878.50;687792;28;46339;-67
2021/11/08 01:32:14;;;;;;;1053.13;983.22;;;;;;;8.51;72.60;100873.09;688489;28;23499;-66
2021/11/08 01:32:35;;;;;;;1053.18;983.28;;;;;;;8.51;72.55;100881.19;687523;28;46319;-66
2021/11/08 01:33:01;;;;;;;1052.68;982.88;;;;;;;8.50;72.38;100883.03;688899;28;21511;-66
2021/11/08 01:33:23;;;;;;;1049.00;979.20;;;;;;;8.50;72.71;100879.50;685137;28;138222;-67
2021/11/08 01:33:49;;;;;;;1053.63;983.63;;;;;;;8.48;72.68;100887.75;689303;28;44262;-67
2021/11/08 01:34:21;;;;;;;1043.35;973.97;;;;;;;8.51;72.57;100881.19;686920;28;98483;-67
2021/11/08 01:34:42;;;;;;;1026.18;957.65;;;;;;;8.50;72.61;100880.34;689264;28;46293;-67
2021/11/08 01:35:04;;;;;;;1032.00;963.30;;;;;;;8.49;72.50;100878.66;687145;28;47520;-67
2021/11/08 01:35:30;;;;;;;1026.93;958.42;;;;;;;8.49;72.84;100884.03;688384;28;44361;-66
2021/11/08 01:35:59;;;;;;;1021.15;952.95;;;;;;;8.51;72.58;100882.03;686135;28;137155;-67
2021/11/08 01:36:24;;;;;;;1027.75;959.25;;;;;;;8.51;72.51;100876.66;684179;28;158250;-67
2021/11/08 01:36:51;;;;;;;1027.28;958.75;;;;;;;8.51;72.71;100881.19;685570;28;115900;-67
2021/11/08 01:37:12;;;;;;;1028.78;960.28;;;;;;;8.52;72.44;100885.56;684973;28;161084;-67
2021/11/08 01:37:33;;;;;;;1029.85;961.15;;;;;;;8.47;72.52;100870.72;688102;28;45364;-65
2021/11/08 01:38:02;;;;;;;1034.97;965.88;;;;;;;8.50;72.52;100882.22;689466;28;23495;-67
2021/11/08 01:38:25;;;;;;;1029.22;960.33;;;;;;;8.51;72.70;100882.03;685044;28;139225;-66
2021/11/08 01:38:48;;;;;;;1030.75;961.85;;;;;;;8.49;72.55;100884.03;687865;28;67482;-66
2021/11/08 01:39:15;;;;;;;1030.38;961.55;;;;;;;8.51;72.53;100889.25;688065;28;70159;-67
2021/11/08 01:39:37;;;;;;;1030.80;961.97;;;;;;;8.53;72.83;100887.28;685002;28;136323;-66
2021/11/08 01:39:58;;;;;;;1031.18;962.40;;;;;;;8.51;72.40;100881.19;687844;28;45260;-66
2021/11/08 01:40:20;;;;;;;1032.93;964.13;;;;;;;8.52;72.50;100883.72;689575;28;24776;-67
2021/11/08 01:40:43;;;;;;;1031.03;962.22;;;;;;;8.53;72.75;100884.56;689993;28;22437;-66
2021/11/08 01:41:04;;;;;;;1031.10;962.30;;;;;;;8.51;72.59;100889.25;686998;28;69436;-67
2021/11/08 01:41:27;;;;;;;1031.35;962.47;;;;;;;8.54;72.63;100897.00;688047;28;45155;-66
2021/11/08 01:41:49;;;;;;;1045.13;975.47;;;;;;;8.60;72.49;100881.06;688223;28;46313;-67
2021/11/08 01:42:11;;;;;;;1054.90;984.70;;;;;;;8.60;72.35;100894.53;688423;28;44506;-66
2021/11/08 01:42:34;;;;;;;1053.25;983.25;;;;;;;8.59;72.38;100887.47;686695;28;69472;-66